createdAt,value
2019-04-11T00:02:21.143Z,6.67
2019-04-11T00:04:52.563Z,6.27
2019-04-11T00:07:24.556Z,5.80
2019-04-11T00:09:56.757Z,7.10
2019-04-11T00:12:27.813Z,7.30
2019-04-11T00:14:58.833Z,5.57
2019-04-11T00:17:30.052Z,5.23
2019-04-11T00:20:02.153Z,6.57
2019-04-11T00:22:35.322Z,6.43
2019-04-11T00:25:07.337Z,6.13
2019-04-11T00:27:39.401Z,5.00
2019-04-11T00:30:10.527Z,4.13
2019-04-11T00:32:41.681Z,5.10
2019-04-11T00:35:12.709Z,5.50
2019-04-11T00:37:45.482Z,4.37
2019-04-11T00:40:17.490Z,6.27
2019-04-11T00:42:50.467Z,6.33
2019-04-11T00:45:21.644Z,8.23
2019-04-11T00:47:53.228Z,8.83
2019-04-11T00:50:25.264Z,7.93
2019-04-11T00:52:57.972Z,9.67
2019-04-11T00:55:29.463Z,9.93
2019-04-11T00:58:01.383Z,11.23
2019-04-11T01:00:33.338Z,11.13
2019-04-11T01:03:04.979Z,12.33
2019-04-11T01:05:37.375Z,11.90
2019-04-11T01:08:08.492Z,10.97
2019-04-11T01:10:39.463Z,11.80
2019-04-11T01:13:11.264Z,10.30
2019-04-11T01:15:44.894Z,9.37
2019-04-11T01:18:16.044Z,7.17
2019-04-11T01:20:48.004Z,5.03
2019-04-11T01:23:20.789Z,3.70
2019-04-11T01:25:52.724Z,3.20
2019-04-11T01:28:24.824Z,4.40
2019-04-11T01:30:57.651Z,3.53
2019-04-11T01:33:31.772Z,2.60
2019-04-11T01:36:04.772Z,2.53
2019-04-11T01:38:38.744Z,2.50
2019-04-11T01:41:12.131Z,3.07
2019-04-11T01:43:56.261Z,2.73
2019-04-11T01:46:20.874Z,2.90
2019-04-11T01:48:53.506Z,2.40
2019-04-11T01:51:34.539Z,2.60
2019-04-11T01:54:13.268Z,2.67
2019-04-11T01:56:45.341Z,2.50
2019-04-11T01:59:19.453Z,2.67
2019-04-11T02:02:03.308Z,3.80
2019-04-11T02:04:40.398Z,5.70
2019-04-11T02:07:12.225Z,7.20
2019-04-11T02:09:44.330Z,7.80
2019-04-11T02:12:16.276Z,7.27
2019-04-11T02:14:47.970Z,8.07
2019-04-11T02:17:19.065Z,6.37
2019-04-11T02:19:50.303Z,5.33
2019-04-11T02:22:22.941Z,4.97
2019-04-11T02:25:02.425Z,4.77
2019-04-11T02:27:35.041Z,4.77
2019-04-11T02:30:11.301Z,4.77
2019-04-11T02:32:43.348Z,4.67
2019-04-11T02:35:19.840Z,4.27
2019-04-11T02:37:52.046Z,4.60
2019-04-11T02:40:24.633Z,4.63
2019-04-11T02:42:57.293Z,3.67
2019-04-11T02:45:42.646Z,4.03
2019-04-11T02:48:02.167Z,3.00
2019-04-11T02:50:36.326Z,2.20
2019-04-11T02:53:09.249Z,3.20
2019-04-11T02:55:43.587Z,2.90
2019-04-11T02:58:15.252Z,2.30
2019-04-11T03:00:46.478Z,2.40
2019-04-11T03:03:17.920Z,3.27
2019-04-11T03:05:49.010Z,2.07
2019-04-11T03:08:22.013Z,1.90
2019-04-11T03:10:53.569Z,2.03
2019-04-11T03:13:29.441Z,2.10
2019-04-11T03:16:17.188Z,2.17
2019-04-11T03:18:54.971Z,2.00
2019-04-11T03:21:16.443Z,2.03
2019-04-11T03:23:53.988Z,2.43
2019-04-11T03:26:35.494Z,2.00
2019-04-11T03:29:11.201Z,2.20
2019-04-11T03:32:33.036Z,2.40
2019-04-11T03:37:13.800Z,1.90
2019-04-11T03:39:43.875Z,2.20
2019-04-11T03:42:24.408Z,2.17
2019-04-11T03:44:47.813Z,2.03
2019-04-11T03:47:33.951Z,3.20
2019-04-11T03:49:56.178Z,2.70
2019-04-11T03:52:24.262Z,2.40
2019-04-11T03:54:58.367Z,2.40
2019-04-11T03:57:29.908Z,2.60
2019-04-11T04:00:01.821Z,2.83
2019-04-11T04:02:34.841Z,3.03
2019-04-11T04:05:08.205Z,3.60
2019-04-11T04:07:40.338Z,2.80
2019-04-11T04:10:13.344Z,2.80
2019-04-11T04:12:45.978Z,2.27
2019-04-11T04:15:44.221Z,2.00
2019-04-11T04:18:03.530Z,2.40
2019-04-11T04:20:48.878Z,2.50
2019-04-11T04:23:24.898Z,1.93
2019-04-11T04:25:58.480Z,2.57
2019-04-11T04:28:31.562Z,3.10
2019-04-11T04:31:04.407Z,4.33
2019-04-11T04:33:36.164Z,8.30
2019-04-11T04:36:10.413Z,16.97
2019-04-11T04:38:41.613Z,19.87
2019-04-11T04:41:28.280Z,29.23
2019-04-11T04:43:50.498Z,23.27
2019-04-11T04:46:35.192Z,13.50
2019-04-11T04:48:55.797Z,12.27
2019-04-11T04:51:28.681Z,6.50
2019-04-11T04:54:00.416Z,7.07
2019-04-11T04:56:32.489Z,5.23
2019-04-11T04:59:06.967Z,7.33
2019-04-11T05:01:39.186Z,9.20
2019-04-11T05:04:11.453Z,6.40
2019-04-11T05:06:46.723Z,13.10
2019-04-11T05:09:15.541Z,14.27
2019-04-11T05:11:46.736Z,8.77
2019-04-11T05:14:18.920Z,3.80
2019-04-11T05:16:50.482Z,2.47
2019-04-11T05:19:22.530Z,2.90
2019-04-11T05:21:54.138Z,3.17
2019-04-11T05:24:26.300Z,3.30
2019-04-11T05:26:57.859Z,3.40
2019-04-11T05:29:29.241Z,4.00
2019-04-11T05:32:00.438Z,4.40
2019-04-11T05:34:33.048Z,5.57
2019-04-11T05:37:04.056Z,7.93
2019-04-11T05:39:36.370Z,4.70
2019-04-11T05:42:07.317Z,3.60
2019-04-11T05:44:40.367Z,2.90
2019-04-11T05:47:14.684Z,3.37
2019-04-11T05:49:46.641Z,3.83
2019-04-11T05:52:17.817Z,5.30
2019-04-11T05:54:54.268Z,6.13
2019-04-11T05:57:33.586Z,4.70
2019-04-11T05:59:59.314Z,4.63
2019-04-11T06:02:35.310Z,3.43
2019-04-11T06:05:09.030Z,3.00
2019-04-11T06:07:46.198Z,2.40
2019-04-11T06:10:24.609Z,3.47
2019-04-11T06:13:12.394Z,4.77
2019-04-11T06:15:49.258Z,3.40
2019-04-11T06:18:31.093Z,6.83
2019-04-11T06:20:59.789Z,14.80
2019-04-11T06:23:47.746Z,16.07
2019-04-11T06:26:30.418Z,11.80
2019-04-11T06:29:17.226Z,7.90
2019-04-11T06:31:47.514Z,4.63
2019-04-11T06:34:18.486Z,4.10
2019-04-11T06:37:00.041Z,3.67
2019-04-11T06:39:33.731Z,4.07
2019-04-11T06:42:10.705Z,4.20
2019-04-11T06:44:46.134Z,5.13
2019-04-11T06:47:35.390Z,5.53
2019-04-11T06:50:20.783Z,6.50
2019-04-11T06:52:52.953Z,4.93
2019-04-11T06:55:26.481Z,3.50
2019-04-11T06:58:00.446Z,3.53
2019-04-11T07:00:31.931Z,3.37
2019-04-11T07:03:05.644Z,3.70
2019-04-11T07:05:40.562Z,3.40
2019-04-11T07:08:11.698Z,4.73
2019-04-11T07:10:47.186Z,3.97
2019-04-11T07:13:22.807Z,3.13
2019-04-11T07:15:54.839Z,3.23
2019-04-11T07:18:44.236Z,3.40
2019-04-11T07:21:15.310Z,3.30
2019-04-11T07:24:05.281Z,3.20
2019-04-11T07:26:38.215Z,3.13
2019-04-11T07:29:23.953Z,5.17
2019-04-11T07:31:57.046Z,3.20
2019-04-11T07:34:47.797Z,14.80
2019-04-11T07:37:28.280Z,9.07
2019-04-11T07:40:05.721Z,5.90
2019-04-11T07:42:39.060Z,7.30
2019-04-11T07:45:23.779Z,8.73
2019-04-11T07:47:56.303Z,3.90
2019-04-11T07:50:27.641Z,2.70
2019-04-11T07:53:01.473Z,3.30
2019-04-11T07:55:32.819Z,2.70
2019-04-11T07:58:06.368Z,3.33
2019-04-11T08:00:44.829Z,3.13
2019-04-11T08:03:14.397Z,3.70
2019-04-11T08:05:57.206Z,5.80
2019-04-11T08:08:36.688Z,5.60
2019-04-11T08:11:09.590Z,5.17
2019-04-11T08:13:48.178Z,4.43
2019-04-11T08:16:37.133Z,5.83
2019-04-11T08:19:20.652Z,2.90
2019-04-11T08:22:08.410Z,1.97
2019-04-11T08:24:41.112Z,6.03
2019-04-11T08:27:28.959Z,8.13
2019-04-11T08:30:02.678Z,19.93
2019-04-11T08:32:38.530Z,8.50
2019-04-11T08:35:15.860Z,7.20
2019-04-11T08:38:01.001Z,1.73
2019-04-11T08:40:36.334Z,1.77
2019-04-11T08:43:08.875Z,2.30
2019-04-11T08:45:48.482Z,1.90
2019-04-11T08:48:21.138Z,5.03
2019-04-11T08:50:56.745Z,4.03
2019-04-11T08:53:45.252Z,3.77
2019-04-11T08:56:18.860Z,3.43
2019-04-11T08:59:13.697Z,4.50
2019-04-11T09:01:48.517Z,3.90
2019-04-11T09:04:36.545Z,3.80
2019-04-11T09:07:07.508Z,9.40
2019-04-11T09:09:40.958Z,4.23
2019-04-11T09:12:14.171Z,7.33
2019-04-11T09:14:58.849Z,12.07
2019-04-11T09:17:31.384Z,10.27
2019-04-11T09:20:15.795Z,4.93
2019-04-11T09:22:49.035Z,7.93
2019-04-11T09:25:39.053Z,5.83
2019-04-11T09:28:21.635Z,9.43
2019-04-11T09:30:57.277Z,5.37
2019-04-11T09:33:47.062Z,7.57
2019-04-11T09:36:19.800Z,7.97
2019-04-11T09:38:59.058Z,6.97
2019-04-11T09:41:38.611Z,4.40
2019-04-11T09:44:14.850Z,9.40
2019-04-11T09:46:59.760Z,33.53
2019-04-11T09:49:41.138Z,9.93
2019-04-11T09:52:14.284Z,15.53
2019-04-11T09:54:46.942Z,11.07
2019-04-11T09:57:22.807Z,4.57
2019-04-11T09:59:58.290Z,3.30
2019-04-11T10:02:31.067Z,10.73
2019-04-11T10:05:03.836Z,4.20
2019-04-11T10:07:37.621Z,7.37
2019-04-11T10:10:28.896Z,6.80
2019-04-11T10:13:18.720Z,4.83
2019-04-11T10:16:09.664Z,4.67
2019-04-11T10:18:45.391Z,4.97
2019-04-11T10:21:19.761Z,6.20
2019-04-11T10:23:58.960Z,6.33
2019-04-11T10:26:31.967Z,6.87
2019-04-11T10:29:19.610Z,5.57
2019-04-11T10:31:55.106Z,5.50
2019-04-11T10:34:37.469Z,4.30
2019-04-11T10:37:11.660Z,6.27
2019-04-11T10:39:53.903Z,3.43
2019-04-11T10:42:25.060Z,6.20
2019-04-11T10:45:16.449Z,8.50
2019-04-11T10:47:47.731Z,7.97
2019-04-11T10:50:36.036Z,6.40
2019-04-11T10:53:07.077Z,5.00
2019-04-11T10:55:42.382Z,2.27
2019-04-11T10:58:14.912Z,4.57
2019-04-11T11:00:59.779Z,8.77
2019-04-11T11:03:38.324Z,6.77
2019-04-11T11:06:11.540Z,3.40
2019-04-11T11:08:53.430Z,21.03
2019-04-11T11:11:38.650Z,12.60
2019-04-11T11:14:14.326Z,3.23
2019-04-11T11:16:50.726Z,4.60
2019-04-11T11:19:50.185Z,8.10
2019-04-11T11:22:14.680Z,8.03
2019-04-11T11:25:03.749Z,14.30
2019-04-11T11:27:36.323Z,5.87
2019-04-11T11:30:27.396Z,7.27
2019-04-11T11:32:58.378Z,16.50
2019-04-11T11:35:33.983Z,15.10
2019-04-11T11:38:06.035Z,4.50
2019-04-11T11:40:56.280Z,9.57
2019-04-11T11:43:28.968Z,8.63
2019-04-11T11:46:25.559Z,12.87
2019-04-11T11:48:57.185Z,11.83
2019-04-11T11:51:31.153Z,11.03
2019-04-11T11:54:13.606Z,9.20
2019-04-11T11:56:47.428Z,10.37
2019-04-11T11:59:20.710Z,9.83
2019-04-11T12:01:56.910Z,1.73
2019-04-11T12:04:46.476Z,1.67
2019-04-11T12:07:23.000Z,2.17
2019-04-11T12:10:13.233Z,1.80
2019-04-11T12:12:46.419Z,3.70
2019-04-11T12:15:37.300Z,2.30
2019-04-11T12:18:11.007Z,3.20
2019-04-11T12:20:59.379Z,1.50
2019-04-11T12:23:58.101Z,2.53
2019-04-11T12:26:22.069Z,2.80
2019-04-11T12:28:54.724Z,1.63
2019-04-11T12:31:28.700Z,2.60
2019-04-11T12:34:01.697Z,2.57
2019-04-11T12:36:43.050Z,2.43
2019-04-11T12:39:30.448Z,3.60
2019-04-11T12:42:10.373Z,3.63
2019-04-11T12:44:59.734Z,6.67
2019-04-11T12:47:32.530Z,13.13
2019-04-11T12:50:11.657Z,3.67
2019-04-11T12:52:44.244Z,3.17
2019-04-11T12:55:16.784Z,5.00
2019-04-11T12:58:07.624Z,2.00
2019-04-11T13:00:44.232Z,3.00
2019-04-11T13:03:33.194Z,4.83
2019-04-11T13:06:20.675Z,6.67
2019-04-11T13:08:54.095Z,2.30
2019-04-11T13:11:26.622Z,1.90
2019-04-11T13:14:01.911Z,2.40
2019-04-11T13:16:32.844Z,1.60
2019-04-11T13:19:20.274Z,2.10
2019-04-11T13:21:52.824Z,2.30
2019-04-11T13:24:38.665Z,2.10
2019-04-11T13:27:13.967Z,1.40
2019-04-11T13:29:46.555Z,3.13
2019-04-11T13:32:34.224Z,2.43
2019-04-11T13:35:14.151Z,2.30
2019-04-11T13:38:01.990Z,2.30
2019-04-11T13:40:47.378Z,3.53
2019-04-11T13:43:34.933Z,5.37
2019-04-11T13:46:16.602Z,9.37
2019-04-11T13:48:49.231Z,17.90
2019-04-11T13:51:28.041Z,5.67
2019-04-11T13:54:19.428Z,2.97
2019-04-11T13:56:55.603Z,10.97
2019-04-11T13:59:37.041Z,4.07
2019-04-11T14:02:17.620Z,5.30
2019-04-11T14:04:50.245Z,6.87
2019-04-11T14:07:24.581Z,5.00
2019-04-11T14:10:02.631Z,11.83
2019-04-11T14:12:34.466Z,12.70
2019-04-11T14:15:10.131Z,7.93
2019-04-11T14:17:59.088Z,19.73
2019-04-11T14:20:34.497Z,20.60
2019-04-11T14:23:24.268Z,11.50
2019-04-11T14:26:09.162Z,14.43
2019-04-11T14:28:45.390Z,26.13
2019-04-11T14:31:21.696Z,23.47
2019-04-11T14:33:58.080Z,37.37
2019-04-11T14:36:46.751Z,16.90
2019-04-11T14:39:22.223Z,22.40
2019-04-11T14:42:12.015Z,17.20
2019-04-11T14:44:46.146Z,17.50
2019-04-11T14:47:24.911Z,6.73
2019-04-11T14:50:06.187Z,20.50
2019-04-11T14:52:51.968Z,28.23
2019-04-11T14:55:24.506Z,59.77
2019-04-11T14:58:02.939Z,18.53
2019-04-11T15:00:39.062Z,29.80
2019-04-11T15:03:29.647Z,81.13
2019-04-11T15:06:14.619Z,72.83
2019-04-11T15:08:51.422Z,29.73
2019-04-11T15:11:24.033Z,21.03
2019-04-11T15:13:56.602Z,31.83
2019-04-11T15:16:37.573Z,26.30
2019-04-11T15:19:08.532Z,22.87
2019-04-11T15:21:47.102Z,8.40
2019-04-11T15:24:18.347Z,7.37
2019-04-11T15:26:53.670Z,7.60
2019-04-11T15:29:26.230Z,7.33
2019-04-11T15:32:01.898Z,18.03
2019-04-11T15:34:36.093Z,15.23
2019-04-11T15:37:25.875Z,32.83
2019-04-11T15:40:10.851Z,10.20
2019-04-11T15:42:58.806Z,18.20
2019-04-11T15:45:47.446Z,13.63
2019-04-11T15:48:23.665Z,19.53
2019-04-11T15:51:10.242Z,14.20
2019-04-11T15:53:49.009Z,5.90
2019-04-11T15:56:41.687Z,16.30
2019-04-11T15:59:15.307Z,18.03
2019-04-11T16:01:57.074Z,22.60
2019-04-11T16:04:33.465Z,14.10
2019-04-11T16:07:12.077Z,28.67
2019-04-11T16:09:44.999Z,24.40
2019-04-11T16:12:17.577Z,109.80
2019-04-11T16:15:07.769Z,48.33
2019-04-11T16:17:57.928Z,75.63
2019-04-11T16:20:32.224Z,10.20
2019-04-11T16:23:13.700Z,6.93
2019-04-11T16:25:46.320Z,11.80
2019-04-11T16:28:21.576Z,6.30
2019-04-11T16:30:57.459Z,12.73
2019-04-11T16:33:45.803Z,14.13
2019-04-11T16:36:21.647Z,41.13
2019-04-11T16:38:59.989Z,14.50
2019-04-11T16:41:54.625Z,35.10
2019-04-11T16:44:46.099Z,14.73
2019-04-11T16:47:35.135Z,10.50
2019-04-11T16:50:06.150Z,13.73
2019-04-11T16:52:38.532Z,12.43
2019-04-11T16:55:10.667Z,20.83
2019-04-11T16:57:44.252Z,13.13
2019-04-11T17:00:19.760Z,13.43
2019-04-11T17:02:48.211Z,11.70
2019-04-11T17:05:19.151Z,18.50
2019-04-11T17:08:08.319Z,19.73
2019-04-11T17:10:58.992Z,11.07
2019-04-11T17:13:32.417Z,11.17
2019-04-11T17:16:04.723Z,20.17
2019-04-11T17:18:35.727Z,21.73
2019-04-11T17:21:08.547Z,12.43
2019-04-11T17:23:40.591Z,13.53
2019-04-11T17:26:11.592Z,23.43
2019-04-11T17:28:43.469Z,12.13
2019-04-11T17:31:14.726Z,7.70
2019-04-11T17:33:45.778Z,48.73
2019-04-11T17:36:16.733Z,19.17
2019-04-11T17:38:48.623Z,14.73
2019-04-11T17:41:24.235Z,9.03
2019-04-11T17:43:55.440Z,9.97
2019-04-11T17:46:26.929Z,8.73
2019-04-11T17:48:58.642Z,16.67
2019-04-11T17:51:34.625Z,19.60
2019-04-11T17:54:04.667Z,15.23
2019-04-11T17:56:37.257Z,11.63
2019-04-11T17:59:08.224Z,10.60
2019-04-11T18:01:39.233Z,5.10
2019-04-11T18:04:13.234Z,4.87
2019-04-11T18:06:46.915Z,7.70
2019-04-11T18:09:16.427Z,6.80
2019-04-11T18:11:47.418Z,8.33
2019-04-11T18:14:18.453Z,12.27
2019-04-11T18:16:49.417Z,13.03
2019-04-11T18:19:20.426Z,8.33
2019-04-11T18:21:51.426Z,7.50
2019-04-11T18:24:23.328Z,12.27
2019-04-11T18:26:54.264Z,9.13
2019-04-11T18:29:25.286Z,8.17
2019-04-11T18:31:56.268Z,9.93
2019-04-11T18:34:27.322Z,11.57
2019-04-11T18:37:01.689Z,9.53
2019-04-11T18:39:33.634Z,9.10
2019-04-11T18:42:11.878Z,6.67
2019-04-11T18:44:42.959Z,8.83
2019-04-11T18:47:13.852Z,9.10
2019-04-11T18:49:45.662Z,8.17
2019-04-11T18:52:19.877Z,13.47
2019-04-11T18:54:50.191Z,10.70
2019-04-11T18:57:21.187Z,7.33
2019-04-11T18:59:53.249Z,11.17
2019-04-11T19:02:24.260Z,5.83
2019-04-11T19:04:55.375Z,8.50
2019-04-11T19:07:28.063Z,7.00
2019-04-11T19:10:00.765Z,6.67
2019-04-11T19:12:31.690Z,6.20
2019-04-11T19:15:02.841Z,6.80
2019-04-11T19:17:33.751Z,4.93
2019-04-11T19:20:06.630Z,8.87
2019-04-11T19:22:38.549Z,10.97
2019-04-11T19:25:12.047Z,14.23
2019-04-11T19:27:43.438Z,12.03
2019-04-11T19:30:15.671Z,19.83
2019-04-11T19:32:46.607Z,4.70
2019-04-11T19:35:17.660Z,26.53
2019-04-11T19:37:48.632Z,17.03
2019-04-11T19:40:19.668Z,8.87
2019-04-11T19:42:50.619Z,18.23
2019-04-11T19:45:21.585Z,8.43
2019-04-11T19:47:52.931Z,7.40
2019-04-11T19:50:29.065Z,6.37
2019-04-11T19:53:02.689Z,6.13
2019-04-11T19:55:38.128Z,8.93
2019-04-11T19:58:09.056Z,9.13
2019-04-11T20:00:40.140Z,7.80
2019-04-11T20:03:11.077Z,9.43
2019-04-11T20:05:42.111Z,8.67
2019-04-11T20:08:13.047Z,9.53
2019-04-11T20:10:44.299Z,10.90
2019-04-11T20:13:15.257Z,9.73
2019-04-11T20:15:46.321Z,12.90
2019-04-11T20:18:17.267Z,16.53
2019-04-11T20:20:48.305Z,24.60
2019-04-11T20:23:19.233Z,15.27
2019-04-11T20:25:51.249Z,13.83
2019-04-11T20:28:22.217Z,12.77
2019-04-11T20:30:53.295Z,20.27
2019-04-11T20:33:27.471Z,13.57
2019-04-11T20:35:56.990Z,6.60
2019-04-11T20:38:27.926Z,12.00
2019-04-11T20:40:59.825Z,14.07
2019-04-11T20:43:30.782Z,13.87
2019-04-11T20:46:01.807Z,10.93
2019-04-11T20:48:35.141Z,14.83
2019-04-11T20:51:07.861Z,11.37
2019-04-11T20:53:38.873Z,13.73
2019-04-11T20:56:10.803Z,12.77
2019-04-11T20:58:41.751Z,11.73
2019-04-11T21:01:12.761Z,11.43
2019-04-11T21:03:43.767Z,9.43
2019-04-11T21:06:14.737Z,7.60
2019-04-11T21:08:45.883Z,6.03
2019-04-11T21:11:18.789Z,6.20
2019-04-11T21:13:49.885Z,6.50
2019-04-11T21:16:20.820Z,6.13
2019-04-11T21:18:54.468Z,6.37
2019-04-11T21:21:25.219Z,8.10
2019-04-11T21:23:58.008Z,6.70
2019-04-11T21:26:30.469Z,7.17
2019-04-11T21:29:01.524Z,7.17
2019-04-11T21:31:32.571Z,7.53
2019-04-11T21:34:03.750Z,7.47
2019-04-11T21:36:34.696Z,7.50
2019-04-11T21:39:07.725Z,7.67
2019-04-11T21:41:39.594Z,7.47
2019-04-11T21:44:10.534Z,6.93
2019-04-11T21:46:42.055Z,7.73
2019-04-11T21:49:13.072Z,7.63
2019-04-11T21:51:44.961Z,9.63
2019-04-11T21:54:15.960Z,10.27
2019-04-11T21:56:49.523Z,9.53
2019-04-11T21:59:20.340Z,7.00
2019-04-11T22:01:54.099Z,7.33
2019-04-11T22:04:27.071Z,9.03
2019-04-11T22:07:00.732Z,12.43
2019-04-11T22:09:30.007Z,14.90
2019-04-11T22:12:01.072Z,13.07
2019-04-11T22:14:31.953Z,14.47
2019-04-11T22:17:02.877Z,9.47
2019-04-11T22:19:33.759Z,9.13
2019-04-11T22:22:04.677Z,8.77
2019-04-11T22:24:35.572Z,10.20
2019-04-11T22:27:06.544Z,9.23
2019-04-11T22:29:37.453Z,10.20
2019-04-11T22:32:08.373Z,10.03
2019-04-11T22:34:40.916Z,10.50
2019-04-11T22:37:11.839Z,9.73
2019-04-11T22:39:42.734Z,9.90
2019-04-11T22:42:14.893Z,8.77
2019-04-11T22:44:45.841Z,8.20
2019-04-11T22:47:16.829Z,8.07
2019-04-11T22:49:47.731Z,8.63
2019-04-11T22:52:20.413Z,7.10
2019-04-11T22:54:51.347Z,5.93
2019-04-11T22:57:22.269Z,4.63
2019-04-11T22:59:53.174Z,3.63
2019-04-11T23:02:31.700Z,5.00
2019-04-11T23:05:02.587Z,5.13
2019-04-11T23:07:33.510Z,4.47
2019-04-11T23:10:06.922Z,4.50
2019-04-11T23:12:39.525Z,2.83
2019-04-11T23:15:10.431Z,3.50
2019-04-11T23:17:41.754Z,5.10
2019-04-11T23:20:15.023Z,6.20
2019-04-11T23:22:47.921Z,3.70
2019-04-11T23:25:20.563Z,5.33
2019-04-11T23:27:51.518Z,4.17
2019-04-11T23:30:22.525Z,4.03
2019-04-11T23:32:53.683Z,3.57
2019-04-11T23:35:24.671Z,5.00
2019-04-11T23:37:55.596Z,3.70
2019-04-11T23:40:26.659Z,3.60
2019-04-11T23:42:58.617Z,3.73
2019-04-11T23:45:33.055Z,3.43
2019-04-11T23:48:03.983Z,3.70
2019-04-11T23:50:38.123Z,3.70
2019-04-11T23:53:09.855Z,3.20
2019-04-11T23:55:41.006Z,4.37
2019-04-11T23:58:13.821Z,5.30
